sensor_id;sensor_type;location;lat;lon;timestamp;P1;durP1;ratioP1;P2;durP2;ratioP2
50631;SDS011;49583;45.590;-122.498;2023-01-25T00:01:07;4.90;;;1.90;;
50631;SDS011;49583;45.590;-122.498;2023-01-25T00:03:20;9.40;;;1.60;;
50631;SDS011;49583;45.590;-122.498;2023-01-25T00:05:33;3.70;;;2.30;;
50631;SDS011;49583;45.590;-122.498;2023-01-25T00:07:46;4.00;;;1.50;;
50631;SDS011;49583;45.590;-122.498;2023-01-25T00:10:01;2.80;;;2.00;;
50631;SDS011;49583;45.590;-122.498;2023-01-25T00:12:16;3.10;;;1.50;;
50631;SDS011;49583;45.590;-122.498;2023-01-25T00:14:29;2.90;;;1.80;;
50631;SDS011;49583;45.590;-122.498;2023-01-25T00:16:42;4.00;;;2.10;;
50631;SDS011;49583;45.590;-122.498;2023-01-25T00:18:55;2.40;;;1.50;;
50631;SDS011;49583;45.590;-122.498;2023-01-25T00:21:14;3.30;;;1.90;;
50631;SDS011;49583;45.590;-122.498;2023-01-25T00:23:29;3.70;;;1.70;;
50631;SDS011;49583;45.590;-122.498;2023-01-25T00:25:47;4.40;;;1.50;;
50631;SDS011;49583;45.590;-122.498;2023-01-25T00:28:05;5.10;;;1.40;;
50631;SDS011;49583;45.590;-122.498;2023-01-25T00:30:21;5.00;;;2.00;;
50631;SDS011;49583;45.590;-122.498;2023-01-25T00:35:12;4.40;;;1.80;;
50631;SDS011;49583;45.590;-122.498;2023-01-25T00:37:27;3.60;;;2.80;;
50631;SDS011;49583;45.590;-122.498;2023-01-25T00:39:45;2.90;;;1.90;;
50631;SDS011;49583;45.590;-122.498;2023-01-25T00:41:58;3.80;;;2.00;;
50631;SDS011;49583;45.590;-122.498;2023-01-25T00:44:12;2.70;;;1.90;;
50631;SDS011;49583;45.590;-122.498;2023-01-25T00:46:25;3.70;;;2.00;;
50631;SDS011;49583;45.590;-122.498;2023-01-25T00:48:38;2.80;;;2.20;;
50631;SDS011;49583;45.590;-122.498;2023-01-25T00:50:51;2.90;;;1.80;;
50631;SDS011;49583;45.590;-122.498;2023-01-25T00:53:09;5.80;;;2.40;;
50631;SDS011;49583;45.590;-122.498;2023-01-25T00:55:23;5.40;;;2.50;;
50631;SDS011;49583;45.590;-122.498;2023-01-25T00:57:38;4.50;;;2.40;;
50631;SDS011;49583;45.590;-122.498;2023-01-25T00:59:52;5.00;;;3.00;;
50631;SDS011;49583;45.590;-122.498;2023-01-25T01:02:06;4.80;;;2.80;;
50631;SDS011;49583;45.590;-122.498;2023-01-25T01:04:19;6.30;;;2.80;;
50631;SDS011;49583;45.590;-122.498;2023-01-25T01:06:34;6.80;;;2.40;;
50631;SDS011;49583;45.590;-122.498;2023-01-25T01:08:48;4.80;;;2.40;;
50631;SDS011;49583;45.590;-122.498;2023-01-25T01:11:01;6.40;;;2.70;;
50631;SDS011;49583;45.590;-122.498;2023-01-25T01:13:18;5.30;;;2.80;;
50631;SDS011;49583;45.590;-122.498;2023-01-25T01:15:31;8.40;;;2.90;;
50631;SDS011;49583;45.590;-122.498;2023-01-25T01:17:47;5.00;;;2.70;;
50631;SDS011;49583;45.590;-122.498;2023-01-25T01:20:00;5.00;;;2.80;;
50631;SDS011;49583;45.590;-122.498;2023-01-25T01:22:14;6.40;;;2.90;;
50631;SDS011;49583;45.590;-122.498;2023-01-25T01:24:27;10.70;;;3.60;;
50631;SDS011;49583;45.590;-122.498;2023-01-25T01:26:41;9.60;;;3.50;;
50631;SDS011;49583;45.590;-122.498;2023-01-25T01:28:54;7.90;;;3.50;;
50631;SDS011;49583;45.590;-122.498;2023-01-25T01:31:08;5.50;;;3.50;;
50631;SDS011;49583;45.590;-122.498;2023-01-25T01:33:30;6.80;;;3.00;;
50631;SDS011;49583;45.590;-122.498;2023-01-25T01:35:44;10.20;;;3.20;;
50631;SDS011;49583;45.590;-122.498;2023-01-25T01:37:58;4.30;;;2.60;;
50631;SDS011;49583;45.590;-122.498;2023-01-25T01:40:13;5.10;;;2.60;;
50631;SDS011;49583;45.590;-122.498;2023-01-25T01:42:27;4.40;;;2.30;;
50631;SDS011;49583;45.590;-122.498;2023-01-25T01:44:45;5.60;;;2.10;;
50631;SDS011;49583;45.590;-122.498;2023-01-25T01:47:01;8.80;;;2.20;;
50631;SDS011;49583;45.590;-122.498;2023-01-25T01:49:15;3.80;;;2.00;;
50631;SDS011;49583;45.590;-122.498;2023-01-25T01:51:41;7.60;;;2.50;;
50631;SDS011;49583;45.590;-122.498;2023-01-25T01:54:01;5.40;;;2.20;;
50631;SDS011;49583;45.590;-122.498;2023-01-25T01:56:18;4.50;;;2.20;;
50631;SDS011;49583;45.590;-122.498;2023-01-25T01:58:35;6.20;;;2.60;;
50631;SDS011;49583;45.590;-122.498;2023-01-25T02:00:51;3.60;;;2.30;;
50631;SDS011;49583;45.590;-122.498;2023-01-25T02:03:06;4.30;;;2.00;;
50631;SDS011;49583;45.590;-122.498;2023-01-25T02:05:21;4.90;;;2.10;;
50631;SDS011;49583;45.590;-122.498;2023-01-25T02:07:46;5.90;;;2.10;;
50631;SDS011;49583;45.590;-122.498;2023-01-25T02:10:03;5.30;;;2.00;;
50631;SDS011;49583;45.590;-122.498;2023-01-25T02:12:21;5.90;;;2.40;;
50631;SDS011;49583;45.590;-122.498;2023-01-25T02:14:35;6.20;;;3.50;;
50631;SDS011;49583;45.590;-122.498;2023-01-25T02:16:57;8.40;;;2.50;;
50631;SDS011;49583;45.590;-122.498;2023-01-25T02:19:14;3.40;;;2.50;;
50631;SDS011;49583;45.590;-122.498;2023-01-25T02:21:48;6.50;;;3.50;;
50631;SDS011;49583;45.590;-122.498;2023-01-25T02:24:08;4.90;;;2.90;;
50631;SDS011;49583;45.590;-122.498;2023-01-25T02:26:27;5.80;;;3.90;;
50631;SDS011;49583;45.590;-122.498;2023-01-25T02:28:41;6.90;;;2.70;;
50631;SDS011;49583;45.590;-122.498;2023-01-25T02:31:04;5.30;;;3.40;;
50631;SDS011;49583;45.590;-122.498;2023-01-25T02:33:17;3.50;;;3.20;;
50631;SDS011;49583;45.590;-122.498;2023-01-25T02:35:42;6.90;;;2.90;;
50631;SDS011;49583;45.590;-122.498;2023-01-25T02:37:58;6.50;;;2.60;;
50631;SDS011;49583;45.590;-122.498;2023-01-25T02:40:12;6.10;;;2.80;;
50631;SDS011;49583;45.590;-122.498;2023-01-25T02:42:26;4.30;;;2.90;;
50631;SDS011;49583;45.590;-122.498;2023-01-25T02:44:42;6.10;;;3.10;;
50631;SDS011;49583;45.590;-122.498;2023-01-25T02:46:57;6.40;;;3.00;;
50631;SDS011;49583;45.590;-122.498;2023-01-25T02:49:10;6.00;;;3.60;;
50631;SDS011;49583;45.590;-122.498;2023-01-25T02:51:27;6.80;;;3.60;;
50631;SDS011;49583;45.590;-122.498;2023-01-25T02:53:43;8.00;;;4.40;;
50631;SDS011;49583;45.590;-122.498;2023-01-25T02:55:56;5.20;;;4.70;;
50631;SDS011;49583;45.590;-122.498;2023-01-25T02:58:14;5.10;;;4.00;;
50631;SDS011;49583;45.590;-122.498;2023-01-25T03:00:28;6.80;;;4.10;;
50631;SDS011;49583;45.590;-122.498;2023-01-25T03:02:42;7.00;;;4.20;;
50631;SDS011;49583;45.590;-122.498;2023-01-25T03:04:55;10.00;;;4.60;;
50631;SDS011;49583;45.590;-122.498;2023-01-25T03:07:08;7.30;;;4.70;;
50631;SDS011;49583;45.590;-122.498;2023-01-25T03:09:22;6.50;;;4.50;;
50631;SDS011;49583;45.590;-122.498;2023-01-25T03:11:38;8.60;;;4.20;;
50631;SDS011;49583;45.590;-122.498;2023-01-25T03:13:51;8.70;;;5.00;;
50631;SDS011;49583;45.590;-122.498;2023-01-25T03:16:05;7.90;;;5.20;;
50631;SDS011;49583;45.590;-122.498;2023-01-25T03:18:20;7.10;;;4.60;;
50631;SDS011;49583;45.590;-122.498;2023-01-25T03:20:34;7.70;;;5.10;;
50631;SDS011;49583;45.590;-122.498;2023-01-25T03:22:47;10.60;;;5.00;;
50631;SDS011;49583;45.590;-122.498;2023-01-25T03:25:00;10.00;;;4.80;;
50631;SDS011;49583;45.590;-122.498;2023-01-25T03:27:14;7.10;;;4.70;;
50631;SDS011;49583;45.590;-122.498;2023-01-25T03:29:49;8.90;;;5.00;;
50631;SDS011;49583;45.590;-122.498;2023-01-25T03:32:04;15.60;;;5.40;;
50631;SDS011;49583;45.590;-122.498;2023-01-25T03:34:18;7.90;;;4.90;;
50631;SDS011;49583;45.590;-122.498;2023-01-25T03:36:31;7.20;;;5.20;;
50631;SDS011;49583;45.590;-122.498;2023-01-25T03:38:45;8.00;;;4.70;;
50631;SDS011;49583;45.590;-122.498;2023-01-25T03:40:58;7.80;;;5.10;;
50631;SDS011;49583;45.590;-122.498;2023-01-25T03:43:13;10.70;;;5.40;;
50631;SDS011;49583;45.590;-122.498;2023-01-25T03:45:27;11.60;;;5.50;;
50631;SDS011;49583;45.590;-122.498;2023-01-25T03:47:40;7.40;;;5.10;;
50631;SDS011;49583;45.590;-122.498;2023-01-25T03:49:54;8.90;;;5.10;;
50631;SDS011;49583;45.590;-122.498;2023-01-25T03:52:07;10.40;;;5.50;;
50631;SDS011;49583;45.590;-122.498;2023-01-25T03:54:21;15.70;;;5.60;;
50631;SDS011;49583;45.590;-122.498;2023-01-25T03:56:34;9.20;;;4.70;;
50631;SDS011;49583;45.590;-122.498;2023-01-25T03:58:55;10.20;;;5.20;;
50631;SDS011;49583;45.590;-122.498;2023-01-25T04:01:09;7.40;;;5.00;;
50631;SDS011;49583;45.590;-122.498;2023-01-25T04:03:22;9.40;;;5.20;;
50631;SDS011;49583;45.590;-122.498;2023-01-25T04:05:37;10.50;;;5.20;;
50631;SDS011;49583;45.590;-122.498;2023-01-25T04:07:51;11.10;;;5.00;;
50631;SDS011;49583;45.590;-122.498;2023-01-25T04:10:11;8.30;;;5.50;;
50631;SDS011;49583;45.590;-122.498;2023-01-25T04:12:26;7.30;;;4.70;;
50631;SDS011;49583;45.590;-122.498;2023-01-25T04:14:39;8.00;;;5.00;;
50631;SDS011;49583;45.590;-122.498;2023-01-25T04:16:58;9.60;;;5.60;;
50631;SDS011;49583;45.590;-122.498;2023-01-25T04:19:17;13.70;;;5.50;;
50631;SDS011;49583;45.590;-122.498;2023-01-25T04:21:30;9.40;;;5.80;;
50631;SDS011;49583;45.590;-122.498;2023-01-25T04:23:43;8.00;;;5.20;;
50631;SDS011;49583;45.590;-122.498;2023-01-25T04:25:58;10.00;;;6.30;;
50631;SDS011;49583;45.590;-122.498;2023-01-25T04:28:13;9.10;;;5.80;;
50631;SDS011;49583;45.590;-122.498;2023-01-25T04:30:27;9.30;;;6.10;;
50631;SDS011;49583;45.590;-122.498;2023-01-25T04:32:40;7.70;;;5.40;;
50631;SDS011;49583;45.590;-122.498;2023-01-25T04:35:05;11.00;;;5.30;;
50631;SDS011;49583;45.590;-122.498;2023-01-25T04:37:19;8.50;;;5.70;;
50631;SDS011;49583;45.590;-122.498;2023-01-25T04:39:35;10.20;;;5.60;;
50631;SDS011;49583;45.590;-122.498;2023-01-25T04:41:51;8.80;;;5.60;;
50631;SDS011;49583;45.590;-122.498;2023-01-25T04:44:05;10.20;;;5.30;;
50631;SDS011;49583;45.590;-122.498;2023-01-25T04:46:19;11.50;;;5.60;;
50631;SDS011;49583;45.590;-122.498;2023-01-25T04:48:33;11.40;;;6.20;;
50631;SDS011;49583;45.590;-122.498;2023-01-25T04:50:49;7.40;;;5.90;;
50631;SDS011;49583;45.590;-122.498;2023-01-25T04:53:02;11.90;;;6.30;;
50631;SDS011;49583;45.590;-122.498;2023-01-25T04:55:16;7.50;;;5.90;;
50631;SDS011;49583;45.590;-122.498;2023-01-25T04:57:30;9.90;;;6.20;;
50631;SDS011;49583;45.590;-122.498;2023-01-25T04:59:43;15.50;;;5.90;;
50631;SDS011;49583;45.590;-122.498;2023-01-25T05:02:01;8.60;;;5.90;;
50631;SDS011;49583;45.590;-122.498;2023-01-25T05:04:14;10.20;;;6.10;;
50631;SDS011;49583;45.590;-122.498;2023-01-25T05:06:28;8.60;;;6.00;;
50631;SDS011;49583;45.590;-122.498;2023-01-25T05:08:41;7.90;;;6.10;;
50631;SDS011;49583;45.590;-122.498;2023-01-25T05:10:55;9.20;;;5.70;;
50631;SDS011;49583;45.590;-122.498;2023-01-25T05:13:16;9.80;;;5.90;;
50631;SDS011;49583;45.590;-122.498;2023-01-25T05:15:37;15.50;;;5.90;;
50631;SDS011;49583;45.590;-122.498;2023-01-25T05:17:50;7.90;;;6.00;;
50631;SDS011;49583;45.590;-122.498;2023-01-25T05:20:04;11.80;;;5.40;;
50631;SDS011;49583;45.590;-122.498;2023-01-25T05:22:21;9.20;;;6.10;;
50631;SDS011;49583;45.590;-122.498;2023-01-25T05:24:36;14.50;;;7.00;;
50631;SDS011;49583;45.590;-122.498;2023-01-25T05:26:50;10.30;;;7.30;;
50631;SDS011;49583;45.590;-122.498;2023-01-25T05:29:33;9.60;;;6.60;;
50631;SDS011;49583;45.590;-122.498;2023-01-25T05:31:47;8.70;;;6.30;;
50631;SDS011;49583;45.590;-122.498;2023-01-25T05:34:00;10.10;;;6.10;;
50631;SDS011;49583;45.590;-122.498;2023-01-25T05:36:13;11.40;;;6.10;;
50631;SDS011;49583;45.590;-122.498;2023-01-25T05:38:26;8.80;;;6.30;;
50631;SDS011;49583;45.590;-122.498;2023-01-25T05:40:40;9.40;;;6.00;;
50631;SDS011;49583;45.590;-122.498;2023-01-25T05:42:56;9.20;;;6.20;;
50631;SDS011;49583;45.590;-122.498;2023-01-25T05:45:11;13.10;;;6.90;;
50631;SDS011;49583;45.590;-122.498;2023-01-25T05:47:25;11.40;;;6.50;;
50631;SDS011;49583;45.590;-122.498;2023-01-25T05:49:38;11.50;;;6.50;;
50631;SDS011;49583;45.590;-122.498;2023-01-25T05:51:57;9.00;;;6.00;;
50631;SDS011;49583;45.590;-122.498;2023-01-25T05:54:10;7.10;;;6.30;;
50631;SDS011;49583;45.590;-122.498;2023-01-25T05:56:30;13.40;;;6.50;;
50631;SDS011;49583;45.590;-122.498;2023-01-25T05:58:43;11.00;;;7.10;;
50631;SDS011;49583;45.590;-122.498;2023-01-25T06:00:56;12.10;;;7.10;;
50631;SDS011;49583;45.590;-122.498;2023-01-25T06:03:16;14.40;;;7.40;;
50631;SDS011;49583;45.590;-122.498;2023-01-25T06:05:30;10.20;;;6.60;;
50631;SDS011;49583;45.590;-122.498;2023-01-25T06:07:43;11.00;;;6.20;;
50631;SDS011;49583;45.590;-122.498;2023-01-25T06:09:57;11.30;;;7.10;;
50631;SDS011;49583;45.590;-122.498;2023-01-25T06:12:10;11.00;;;7.00;;
50631;SDS011;49583;45.590;-122.498;2023-01-25T06:14:23;9.40;;;7.10;;
50631;SDS011;49583;45.590;-122.498;2023-01-25T06:16:36;9.20;;;7.00;;
50631;SDS011;49583;45.590;-122.498;2023-01-25T06:19:22;12.50;;;7.80;;
50631;SDS011;49583;45.590;-122.498;2023-01-25T06:21:48;12.40;;;8.00;;
50631;SDS011;49583;45.590;-122.498;2023-01-25T06:24:01;16.10;;;7.70;;
50631;SDS011;49583;45.590;-122.498;2023-01-25T06:26:15;11.60;;;6.90;;
50631;SDS011;49583;45.590;-122.498;2023-01-25T06:28:30;10.10;;;7.30;;
50631;SDS011;49583;45.590;-122.498;2023-01-25T06:30:46;15.60;;;7.90;;
50631;SDS011;49583;45.590;-122.498;2023-01-25T06:32:59;14.90;;;7.30;;
50631;SDS011;49583;45.590;-122.498;2023-01-25T06:35:12;15.50;;;7.10;;
50631;SDS011;49583;45.590;-122.498;2023-01-25T06:37:26;14.90;;;7.80;;
50631;SDS011;49583;45.590;-122.498;2023-01-25T06:39:38;13.40;;;7.50;;
50631;SDS011;49583;45.590;-122.498;2023-01-25T06:41:51;12.90;;;8.10;;
50631;SDS011;49583;45.590;-122.498;2023-01-25T06:44:04;13.30;;;7.80;;
50631;SDS011;49583;45.590;-122.498;2023-01-25T06:46:17;13.30;;;8.30;;
50631;SDS011;49583;45.590;-122.498;2023-01-25T06:48:30;12.50;;;8.50;;
50631;SDS011;49583;45.590;-122.498;2023-01-25T06:50:44;11.60;;;8.60;;
50631;SDS011;49583;45.590;-122.498;2023-01-25T06:53:01;10.10;;;7.40;;
50631;SDS011;49583;45.590;-122.498;2023-01-25T06:55:14;10.90;;;8.50;;
50631;SDS011;49583;45.590;-122.498;2023-01-25T06:57:26;13.80;;;7.90;;
50631;SDS011;49583;45.590;-122.498;2023-01-25T06:59:39;12.90;;;8.10;;
50631;SDS011;49583;45.590;-122.498;2023-01-25T07:01:51;11.00;;;7.30;;
50631;SDS011;49583;45.590;-122.498;2023-01-25T07:04:04;13.80;;;7.00;;
50631;SDS011;49583;45.590;-122.498;2023-01-25T07:06:18;11.70;;;7.70;;
50631;SDS011;49583;45.590;-122.498;2023-01-25T07:08:31;10.90;;;7.40;;
50631;SDS011;49583;45.590;-122.498;2023-01-25T07:10:44;9.60;;;7.40;;
50631;SDS011;49583;45.590;-122.498;2023-01-25T07:13:08;10.40;;;7.30;;
50631;SDS011;49583;45.590;-122.498;2023-01-25T07:15:21;13.70;;;8.10;;
50631;SDS011;49583;45.590;-122.498;2023-01-25T07:17:33;9.20;;;6.80;;
50631;SDS011;49583;45.590;-122.498;2023-01-25T07:19:46;12.50;;;8.40;;
50631;SDS011;49583;45.590;-122.498;2023-01-25T07:21:59;10.80;;;5.90;;
50631;SDS011;49583;45.590;-122.498;2023-01-25T07:24:12;8.30;;;7.10;;
50631;SDS011;49583;45.590;-122.498;2023-01-25T07:26:26;12.00;;;7.90;;
50631;SDS011;49583;45.590;-122.498;2023-01-25T07:28:40;14.60;;;7.80;;
50631;SDS011;49583;45.590;-122.498;2023-01-25T07:30:54;11.00;;;6.80;;
50631;SDS011;49583;45.590;-122.498;2023-01-25T07:33:12;12.50;;;8.10;;
50631;SDS011;49583;45.590;-122.498;2023-01-25T07:35:26;10.80;;;7.60;;
50631;SDS011;49583;45.590;-122.498;2023-01-25T07:37:39;10.40;;;7.50;;
50631;SDS011;49583;45.590;-122.498;2023-01-25T07:39:52;8.30;;;6.90;;
50631;SDS011;49583;45.590;-122.498;2023-01-25T07:42:05;14.10;;;7.70;;
50631;SDS011;49583;45.590;-122.498;2023-01-25T07:44:26;12.00;;;8.20;;
50631;SDS011;49583;45.590;-122.498;2023-01-25T07:46:51;11.40;;;8.40;;
50631;SDS011;49583;45.590;-122.498;2023-01-25T07:49:07;13.80;;;7.30;;
50631;SDS011;49583;45.590;-122.498;2023-01-25T07:51:20;9.60;;;7.50;;
50631;SDS011;49583;45.590;-122.498;2023-01-25T07:53:34;11.80;;;7.50;;
50631;SDS011;49583;45.590;-122.498;2023-01-25T07:55:47;12.20;;;7.80;;
50631;SDS011;49583;45.590;-122.498;2023-01-25T07:58:00;10.30;;;8.20;;
50631;SDS011;49583;45.590;-122.498;2023-01-25T08:00:14;16.40;;;8.30;;
50631;SDS011;49583;45.590;-122.498;2023-01-25T08:02:30;12.80;;;8.40;;
50631;SDS011;49583;45.590;-122.498;2023-01-25T08:04:42;10.50;;;7.70;;
50631;SDS011;49583;45.590;-122.498;2023-01-25T08:06:55;15.40;;;8.10;;
50631;SDS011;49583;45.590;-122.498;2023-01-25T08:09:10;14.50;;;8.70;;
50631;SDS011;49583;45.590;-122.498;2023-01-25T08:11:26;11.60;;;8.60;;
50631;SDS011;49583;45.590;-122.498;2023-01-25T08:13:41;22.20;;;9.40;;
50631;SDS011;49583;45.590;-122.498;2023-01-25T08:15:55;13.80;;;9.10;;
50631;SDS011;49583;45.590;-122.498;2023-01-25T08:18:08;21.00;;;8.50;;
50631;SDS011;49583;45.590;-122.498;2023-01-25T08:20:21;14.00;;;8.60;;
50631;SDS011;49583;45.590;-122.498;2023-01-25T08:22:35;14.40;;;8.30;;
50631;SDS011;49583;45.590;-122.498;2023-01-25T08:24:47;12.50;;;8.00;;
50631;SDS011;49583;45.590;-122.498;2023-01-25T08:27:01;9.80;;;8.10;;
50631;SDS011;49583;45.590;-122.498;2023-01-25T08:29:14;13.50;;;8.70;;
50631;SDS011;49583;45.590;-122.498;2023-01-25T08:31:28;10.80;;;7.90;;
50631;SDS011;49583;45.590;-122.498;2023-01-25T08:33:43;11.20;;;8.20;;
50631;SDS011;49583;45.590;-122.498;2023-01-25T08:35:56;16.40;;;8.80;;
50631;SDS011;49583;45.590;-122.498;2023-01-25T08:38:13;15.00;;;8.30;;
50631;SDS011;49583;45.590;-122.498;2023-01-25T08:40:27;11.00;;;8.70;;
50631;SDS011;49583;45.590;-122.498;2023-01-25T08:42:44;13.90;;;8.70;;
50631;SDS011;49583;45.590;-122.498;2023-01-25T08:44:57;11.60;;;7.90;;
50631;SDS011;49583;45.590;-122.498;2023-01-25T08:47:11;12.00;;;8.10;;
50631;SDS011;49583;45.590;-122.498;2023-01-25T08:49:24;12.50;;;8.40;;
50631;SDS011;49583;45.590;-122.498;2023-01-25T08:51:38;13.40;;;7.90;;
50631;SDS011;49583;45.590;-122.498;2023-01-25T08:53:50;10.50;;;7.90;;
50631;SDS011;49583;45.590;-122.498;2023-01-25T08:56:09;17.40;;;9.20;;
50631;SDS011;49583;45.590;-122.498;2023-01-25T08:58:24;14.70;;;8.00;;
50631;SDS011;49583;45.590;-122.498;2023-01-25T09:00:38;12.80;;;8.40;;
50631;SDS011;49583;45.590;-122.498;2023-01-25T09:02:52;12.80;;;7.60;;
50631;SDS011;49583;45.590;-122.498;2023-01-25T09:05:05;10.30;;;8.00;;
50631;SDS011;49583;45.590;-122.498;2023-01-25T09:07:19;12.50;;;8.20;;
50631;SDS011;49583;45.590;-122.498;2023-01-25T09:09:32;8.80;;;7.90;;
50631;SDS011;49583;45.590;-122.498;2023-01-25T09:11:45;9.40;;;7.70;;
50631;SDS011;49583;45.590;-122.498;2023-01-25T09:13:58;10.70;;;8.50;;
50631;SDS011;49583;45.590;-122.498;2023-01-25T09:16:11;23.80;;;9.20;;
50631;SDS011;49583;45.590;-122.498;2023-01-25T09:18:29;16.50;;;8.20;;
50631;SDS011;49583;45.590;-122.498;2023-01-25T09:20:42;16.20;;;9.10;;
50631;SDS011;49583;45.590;-122.498;2023-01-25T09:22:55;12.40;;;7.40;;
50631;SDS011;49583;45.590;-122.498;2023-01-25T09:25:08;11.20;;;7.40;;
50631;SDS011;49583;45.590;-122.498;2023-01-25T09:27:21;14.40;;;8.70;;
50631;SDS011;49583;45.590;-122.498;2023-01-25T09:29:34;10.30;;;7.80;;
50631;SDS011;49583;45.590;-122.498;2023-01-25T09:32:05;9.40;;;8.10;;
50631;SDS011;49583;45.590;-122.498;2023-01-25T09:34:30;15.00;;;9.30;;
50631;SDS011;49583;45.590;-122.498;2023-01-25T09:36:43;14.10;;;8.60;;
50631;SDS011;49583;45.590;-122.498;2023-01-25T09:38:56;13.20;;;7.80;;
50631;SDS011;49583;45.590;-122.498;2023-01-25T09:41:16;16.40;;;8.50;;
50631;SDS011;49583;45.590;-122.498;2023-01-25T09:43:48;10.40;;;7.90;;
50631;SDS011;49583;45.590;-122.498;2023-01-25T09:46:21;10.80;;;7.90;;
50631;SDS011;49583;45.590;-122.498;2023-01-25T09:48:45;15.10;;;8.30;;
50631;SDS011;49583;45.590;-122.498;2023-01-25T09:51:17;13.00;;;8.40;;
50631;SDS011;49583;45.590;-122.498;2023-01-25T09:53:35;11.10;;;8.10;;
50631;SDS011;49583;45.590;-122.498;2023-01-25T09:55:51;9.50;;;8.50;;
50631;SDS011;49583;45.590;-122.498;2023-01-25T09:58:09;13.80;;;8.30;;
50631;SDS011;49583;45.590;-122.498;2023-01-25T10:00:30;11.90;;;8.10;;
50631;SDS011;49583;45.590;-122.498;2023-01-25T10:02:47;12.80;;;8.40;;
50631;SDS011;49583;45.590;-122.498;2023-01-25T10:05:04;18.00;;;7.90;;
50631;SDS011;49583;45.590;-122.498;2023-01-25T10:07:23;15.70;;;7.70;;
50631;SDS011;49583;45.590;-122.498;2023-01-25T10:09:40;14.90;;;8.70;;
50631;SDS011;49583;45.590;-122.498;2023-01-25T10:12:01;12.00;;;7.90;;
50631;SDS011;49583;45.590;-122.498;2023-01-25T10:14:22;10.30;;;7.60;;
50631;SDS011;49583;45.590;-122.498;2023-01-25T10:16:36;13.30;;;8.20;;
50631;SDS011;49583;45.590;-122.498;2023-01-25T10:18:57;11.30;;;7.90;;
50631;SDS011;49583;45.590;-122.498;2023-01-25T10:21:22;14.10;;;8.70;;
50631;SDS011;49583;45.590;-122.498;2023-01-25T10:23:46;16.30;;;8.70;;
50631;SDS011;49583;45.590;-122.498;2023-01-25T10:26:15;11.50;;;7.90;;
50631;SDS011;49583;45.590;-122.498;2023-01-25T10:28:38;9.90;;;8.70;;
50631;SDS011;49583;45.590;-122.498;2023-01-25T10:30:57;13.00;;;8.00;;
50631;SDS011;49583;45.590;-122.498;2023-01-25T10:33:14;11.50;;;7.70;;
50631;SDS011;49583;45.590;-122.498;2023-01-25T10:35:30;14.90;;;8.50;;
50631;SDS011;49583;45.590;-122.498;2023-01-25T10:37:51;12.00;;;8.10;;
50631;SDS011;49583;45.590;-122.498;2023-01-25T10:40:12;14.80;;;7.80;;
50631;SDS011;49583;45.590;-122.498;2023-01-25T10:42:30;8.90;;;7.40;;
50631;SDS011;49583;45.590;-122.498;2023-01-25T10:44:47;13.80;;;8.20;;
50631;SDS011;49583;45.590;-122.498;2023-01-25T10:47:03;10.40;;;7.80;;
50631;SDS011;49583;45.590;-122.498;2023-01-25T10:49:26;11.80;;;7.80;;
50631;SDS011;49583;45.590;-122.498;2023-01-25T10:51:45;12.60;;;8.50;;
50631;SDS011;49583;45.590;-122.498;2023-01-25T10:54:00;10.70;;;8.30;;
50631;SDS011;49583;45.590;-122.498;2023-01-25T10:56:17;13.90;;;8.40;;
50631;SDS011;49583;45.590;-122.498;2023-01-25T10:58:34;10.00;;;7.80;;
50631;SDS011;49583;45.590;-122.498;2023-01-25T11:00:49;12.20;;;7.70;;
50631;SDS011;49583;45.590;-122.498;2023-01-25T11:03:03;10.00;;;6.90;;
50631;SDS011;49583;45.590;-122.498;2023-01-25T11:05:30;12.60;;;8.60;;
50631;SDS011;49583;45.590;-122.498;2023-01-25T11:07:44;10.80;;;7.60;;
50631;SDS011;49583;45.590;-122.498;2023-01-25T11:09:57;13.30;;;7.60;;
50631;SDS011;49583;45.590;-122.498;2023-01-25T11:12:19;11.50;;;7.70;;
50631;SDS011;49583;45.590;-122.498;2023-01-25T11:14:33;10.60;;;7.40;;
50631;SDS011;49583;45.590;-122.498;2023-01-25T11:16:46;11.30;;;8.30;;
50631;SDS011;49583;45.590;-122.498;2023-01-25T11:19:00;16.00;;;8.40;;
50631;SDS011;49583;45.590;-122.498;2023-01-25T11:21:32;13.90;;;7.60;;
50631;SDS011;49583;45.590;-122.498;2023-01-25T11:23:48;12.00;;;7.30;;
50631;SDS011;49583;45.590;-122.498;2023-01-25T11:26:14;12.30;;;7.60;;
50631;SDS011;49583;45.590;-122.498;2023-01-25T11:28:28;14.50;;;8.80;;
50631;SDS011;49583;45.590;-122.498;2023-01-25T11:30:40;10.30;;;7.80;;
50631;SDS011;49583;45.590;-122.498;2023-01-25T11:32:55;9.90;;;8.00;;
50631;SDS011;49583;45.590;-122.498;2023-01-25T11:35:17;16.00;;;8.20;;
50631;SDS011;49583;45.590;-122.498;2023-01-25T11:37:41;12.50;;;8.30;;
50631;SDS011;49583;45.590;-122.498;2023-01-25T11:40:10;21.00;;;8.30;;
50631;SDS011;49583;45.590;-122.498;2023-01-25T11:42:32;12.10;;;8.30;;
50631;SDS011;49583;45.590;-122.498;2023-01-25T11:45:09;11.10;;;8.20;;
50631;SDS011;49583;45.590;-122.498;2023-01-25T11:47:40;12.60;;;7.70;;
50631;SDS011;49583;45.590;-122.498;2023-01-25T11:50:05;9.80;;;7.10;;
50631;SDS011;49583;45.590;-122.498;2023-01-25T11:52:25;14.20;;;8.20;;
50631;SDS011;49583;45.590;-122.498;2023-01-25T11:54:53;11.90;;;7.80;;
50631;SDS011;49583;45.590;-122.498;2023-01-25T11:57:27;13.40;;;8.80;;
50631;SDS011;49583;45.590;-122.498;2023-01-25T11:59:54;15.10;;;7.40;;
50631;SDS011;49583;45.590;-122.498;2023-01-25T12:02:30;10.30;;;7.50;;
50631;SDS011;49583;45.590;-122.498;2023-01-25T12:05:07;16.50;;;8.80;;
50631;SDS011;49583;45.590;-122.498;2023-01-25T12:07:36;12.00;;;7.70;;
50631;SDS011;49583;45.590;-122.498;2023-01-25T12:09:58;11.50;;;7.80;;
50631;SDS011;49583;45.590;-122.498;2023-01-25T12:12:27;10.90;;;7.70;;
50631;SDS011;49583;45.590;-122.498;2023-01-25T12:14:56;11.00;;;8.20;;
50631;SDS011;49583;45.590;-122.498;2023-01-25T12:17:35;15.00;;;8.00;;
50631;SDS011;49583;45.590;-122.498;2023-01-25T12:22:48;16.40;;;8.60;;
50631;SDS011;49583;45.590;-122.498;2023-01-25T12:27:32;13.80;;;7.80;;
50631;SDS011;49583;45.590;-122.498;2023-01-25T12:29:53;13.80;;;7.70;;
50631;SDS011;49583;45.590;-122.498;2023-01-25T12:32:15;15.10;;;7.80;;
50631;SDS011;49583;45.590;-122.498;2023-01-25T12:34:32;16.20;;;7.90;;
50631;SDS011;49583;45.590;-122.498;2023-01-25T12:36:48;13.40;;;7.60;;
50631;SDS011;49583;45.590;-122.498;2023-01-25T12:39:04;12.80;;;8.20;;
50631;SDS011;49583;45.590;-122.498;2023-01-25T12:41:29;11.70;;;8.00;;
50631;SDS011;49583;45.590;-122.498;2023-01-25T12:43:49;14.70;;;8.60;;
50631;SDS011;49583;45.590;-122.498;2023-01-25T12:46:10;11.40;;;7.50;;
50631;SDS011;49583;45.590;-122.498;2023-01-25T12:48:31;10.30;;;7.90;;
50631;SDS011;49583;45.590;-122.498;2023-01-25T12:50:52;10.90;;;8.70;;
50631;SDS011;49583;45.590;-122.498;2023-01-25T12:53:09;10.90;;;8.10;;
50631;SDS011;49583;45.590;-122.498;2023-01-25T12:55:27;18.40;;;8.50;;
50631;SDS011;49583;45.590;-122.498;2023-01-25T12:57:45;13.50;;;8.70;;
50631;SDS011;49583;45.590;-122.498;2023-01-25T13:00:04;10.30;;;8.20;;
50631;SDS011;49583;45.590;-122.498;2023-01-25T13:02:32;16.70;;;8.70;;
50631;SDS011;49583;45.590;-122.498;2023-01-25T13:05:02;11.40;;;8.80;;
50631;SDS011;49583;45.590;-122.498;2023-01-25T13:07:26;11.60;;;7.80;;
50631;SDS011;49583;45.590;-122.498;2023-01-25T13:09:49;11.00;;;8.60;;